createdAt,value
2023-05-01T00:00:31.651Z,95.94
2023-05-01T00:01:31.843Z,96.15
2023-05-01T00:02:31.955Z,96.36
2023-05-01T00:03:32.098Z,96.25
2023-05-01T00:04:31.663Z,96.25
2023-05-01T00:05:31.920Z,96.25
2023-05-01T00:06:31.405Z,96.15
2023-05-01T00:07:32.106Z,96.47
2023-05-01T00:08:31.913Z,96.36
2023-05-01T00:09:32.111Z,96.15
2023-05-01T00:10:31.268Z,96.36
2023-05-01T00:11:32.005Z,96.15
2023-05-01T00:12:31.861Z,96.47
2023-05-01T00:13:31.960Z,96.20
2023-05-01T00:14:31.119Z,95.99
2023-05-01T00:15:32.022Z,95.89
2023-05-01T00:16:32.019Z,95.78
2023-05-01T00:17:31.359Z,95.67
2023-05-01T00:18:32.000Z,95.89
2023-05-01T00:19:31.891Z,95.89
2023-05-01T00:20:31.234Z,96.03
2023-05-01T00:21:31.977Z,96.14
2023-05-01T00:22:31.893Z,96.24
2023-05-01T00:23:32.076Z,96.24
2023-05-01T00:24:31.927Z,96.24
2023-05-01T00:25:31.008Z,96.24
2023-05-01T00:26:31.153Z,96.45
2023-05-01T00:27:31.888Z,96.97
2023-05-01T00:28:31.809Z,97.17
2023-05-01T00:29:30.941Z,97.59
2023-05-01T00:30:30.977Z,97.91
2023-05-01T00:31:31.074Z,98.01
2023-05-01T00:32:31.112Z,97.80
2023-05-01T00:33:31.109Z,97.80
2023-05-01T00:34:31.152Z,97.80
2023-05-01T00:35:31.227Z,98.01
2023-05-01T00:36:30.956Z,98.43
2023-05-01T00:37:31.215Z,98.53
2023-05-01T00:38:31.309Z,98.26
2023-05-01T00:39:31.410Z,98.05
2023-05-01T00:40:31.262Z,98.05
2023-05-01T00:41:31.007Z,97.95
2023-05-01T00:42:30.835Z,97.85
2023-05-01T00:43:31.500Z,97.74
2023-05-01T00:44:31.702Z,97.85
2023-05-01T00:45:31.505Z,97.95
2023-05-01T00:46:31.636Z,97.95
2023-05-01T00:47:30.973Z,97.85
2023-05-01T00:48:30.731Z,97.89
2023-05-01T00:49:30.818Z,97.99
2023-05-01T00:50:30.740Z,97.99
2023-05-01T00:51:30.932Z,98.62
2023-05-01T00:52:30.804Z,99.99
2023-05-01T00:53:30.832Z,99.93
2023-05-01T00:54:30.683Z,99.99
2023-05-01T00:55:31.527Z,99.82
2023-05-01T00:56:31.429Z,99.62
2023-05-01T00:57:31.336Z,99.99
2023-05-01T00:58:31.502Z,99.72
2023-05-01T00:59:31.391Z,99.51
2023-05-01T01:00:30.599Z,99.62
2023-05-01T01:01:30.751Z,99.41
2023-05-01T01:02:31.545Z,99.41
2023-05-01T01:03:30.513Z,99.51
2023-05-01T01:04:30.906Z,99.51
2023-05-01T01:05:31.331Z,99.72
2023-05-01T01:06:30.556Z,99.93
2023-05-01T01:07:30.446Z,99.88
2023-05-01T01:08:32.531Z,99.99
2023-05-01T01:09:30.469Z,99.99
2023-05-01T01:10:31.352Z,99.99
2023-05-01T01:11:30.566Z,99.88
2023-05-01T01:12:30.601Z,99.67
2023-05-01T01:13:30.705Z,99.57
2023-05-01T01:14:30.357Z,99.46
2023-05-01T01:15:30.692Z,99.36
2023-05-01T01:16:30.586Z,99.26
2023-05-01T01:17:31.095Z,99.05
2023-05-01T01:18:30.835Z,98.94
2023-05-01T01:19:30.876Z,98.94
2023-05-01T01:20:30.960Z,98.99
2023-05-01T01:21:30.950Z,98.99
2023-05-01T01:22:30.475Z,98.99
2023-05-01T01:23:30.369Z,98.99
2023-05-01T01:24:30.315Z,98.99
2023-05-01T01:25:30.959Z,98.88
2023-05-01T01:26:30.828Z,98.78
2023-05-01T01:27:31.195Z,98.83
2023-05-01T01:28:31.304Z,98.93
2023-05-01T01:29:30.831Z,99.66
2023-05-01T01:30:30.971Z,99.99
2023-05-01T01:31:30.466Z,99.99
2023-05-01T01:32:31.080Z,99.76
2023-05-01T01:33:30.696Z,99.55
2023-05-01T01:34:30.114Z,99.55
2023-05-01T01:35:31.028Z,99.45
2023-05-01T01:36:30.905Z,99.45
2023-05-01T01:37:30.639Z,99.55
2023-05-01T01:38:30.973Z,99.55
2023-05-01T01:39:30.866Z,99.55
2023-05-01T01:40:31.029Z,99.71
2023-05-01T01:42:40.272Z,99.60
2023-05-01T01:43:40.134Z,99.71
2023-05-01T01:44:40.138Z,99.99
2023-05-01T01:45:40.227Z,99.99
2023-05-01T01:46:40.266Z,99.99
2023-05-01T01:47:40.144Z,99.99
2023-05-01T01:48:40.126Z,99.99
2023-05-01T01:49:40.129Z,99.99
2023-05-01T01:50:40.729Z,99.99
2023-05-01T01:51:41.161Z,99.99
2023-05-01T01:52:40.052Z,99.99
2023-05-01T01:53:40.038Z,99.99
2023-05-01T01:54:40.006Z,99.99
2023-05-01T01:55:40.004Z,99.99
2023-05-01T01:56:40.016Z,99.99
2023-05-01T01:57:40.044Z,99.99
2023-05-01T01:58:39.964Z,99.99
2023-05-01T01:59:40.049Z,99.99
2023-05-01T02:00:39.991Z,99.99
2023-05-01T02:01:40.034Z,99.99
2023-05-01T02:02:40.161Z,99.99
2023-05-01T02:03:40.078Z,99.99
2023-05-01T02:04:39.901Z,99.99
2023-05-01T02:05:39.879Z,99.99
2023-05-01T02:06:40.084Z,99.99
2023-05-01T02:07:39.967Z,99.99
2023-05-01T02:08:39.843Z,99.99
2023-05-01T02:09:39.994Z,99.99
2023-05-01T02:10:39.817Z,99.99
2023-05-01T02:11:39.874Z,99.99
2023-05-01T02:12:39.789Z,99.99
2023-05-01T02:13:39.783Z,99.99
2023-05-01T02:14:39.758Z,99.99
2023-05-01T02:15:39.804Z,99.99
2023-05-01T02:16:39.835Z,99.99
2023-05-01T02:17:39.732Z,99.99
2023-05-01T02:18:39.703Z,99.99
2023-05-01T02:19:39.698Z,99.99
2023-05-01T02:20:39.686Z,99.99
2023-05-01T02:21:39.702Z,99.99
2023-05-01T02:22:39.652Z,99.99
2023-05-01T02:23:39.651Z,99.99
2023-05-01T02:24:39.618Z,99.99
2023-05-01T02:25:39.636Z,99.99
2023-05-01T02:26:39.644Z,99.99
2023-05-01T02:27:39.596Z,99.99
2023-05-01T02:28:39.579Z,99.99
2023-05-01T02:29:39.580Z,99.99
2023-05-01T02:30:39.549Z,99.99
2023-05-01T02:31:39.606Z,99.99
2023-05-01T02:32:39.547Z,99.99
2023-05-01T02:33:39.561Z,99.99
2023-05-01T02:34:39.503Z,99.99
2023-05-01T02:35:39.500Z,99.99
2023-05-01T02:36:39.513Z,99.99
2023-05-01T02:37:39.484Z,99.99
2023-05-01T02:38:39.457Z,99.99
2023-05-01T02:39:39.448Z,99.99
2023-05-01T02:40:39.467Z,99.99
2023-05-01T02:41:39.423Z,99.99
2023-05-01T02:42:39.417Z,99.99
2023-05-01T02:43:39.433Z,99.99
2023-05-01T02:44:39.384Z,99.99
2023-05-01T02:45:39.417Z,99.99
2023-05-01T02:46:39.383Z,99.99
2023-05-01T02:47:39.392Z,99.99
2023-05-01T02:48:39.360Z,99.99
2023-05-01T02:49:39.314Z,99.99
2023-05-01T02:50:39.300Z,99.99
2023-05-01T02:51:39.316Z,99.99
2023-05-01T02:52:39.294Z,99.99
2023-05-01T02:53:40.020Z,99.99
2023-05-01T02:54:39.282Z,99.99
2023-05-01T02:55:39.247Z,99.99
2023-05-01T02:56:39.271Z,99.99
2023-05-01T02:57:39.220Z,99.99
2023-05-01T02:58:39.214Z,99.99
2023-05-01T02:59:39.194Z,99.99
2023-05-01T03:00:39.183Z,99.99
2023-05-01T03:01:39.274Z,99.99
2023-05-01T03:02:39.211Z,99.99
2023-05-01T03:03:39.137Z,99.99
2023-05-01T03:04:39.210Z,99.99
2023-05-01T03:05:39.107Z,99.99
2023-05-01T03:06:39.259Z,99.99
2023-05-01T03:07:39.077Z,99.99
2023-05-01T03:08:39.072Z,99.99
2023-05-01T03:09:39.059Z,99.99
2023-05-01T03:10:39.049Z,99.99
2023-05-01T03:11:39.132Z,99.99
2023-05-01T03:12:39.020Z,99.99
2023-05-01T03:13:39.031Z,99.99
2023-05-01T03:14:39.008Z,99.99
2023-05-01T03:15:39.020Z,99.99
2023-05-01T03:16:39.301Z,99.99
2023-05-01T03:17:39.002Z,99.99
2023-05-01T03:18:38.976Z,99.99
2023-05-01T03:19:39.115Z,99.99
2023-05-01T03:20:39.792Z,99.99
2023-05-01T03:21:38.902Z,99.99
2023-05-01T03:22:38.840Z,99.99
2023-05-01T03:23:38.833Z,99.99
2023-05-01T03:24:38.825Z,99.99
2023-05-01T03:25:38.790Z,99.99
2023-05-01T03:26:38.950Z,99.99
2023-05-01T03:27:38.790Z,99.99
2023-05-01T03:28:38.769Z,99.99
2023-05-01T03:29:38.751Z,99.99
2023-05-01T03:30:38.731Z,99.99
2023-05-01T03:31:38.837Z,99.99
2023-05-01T03:32:38.849Z,99.99
2023-05-01T03:33:38.701Z,99.99
2023-05-01T03:34:38.694Z,99.99
2023-05-01T03:35:38.742Z,99.99
2023-05-01T03:36:38.692Z,99.99
2023-05-01T03:37:38.639Z,99.99
2023-05-01T03:38:38.626Z,99.99
2023-05-01T03:39:38.625Z,99.99
2023-05-01T03:40:38.613Z,99.99
2023-05-01T03:41:38.612Z,99.99
2023-05-01T03:42:38.636Z,99.99
2023-05-01T03:43:38.580Z,99.99
2023-05-01T03:44:38.563Z,99.99
2023-05-01T03:45:38.571Z,99.99
2023-05-01T03:46:38.640Z,99.99
2023-05-01T03:47:38.562Z,99.99
2023-05-01T03:48:38.521Z,99.99
2023-05-01T03:49:38.527Z,99.99
2023-05-01T03:50:38.514Z,99.99
2023-05-01T03:51:38.483Z,99.99
2023-05-01T03:52:38.460Z,99.99
2023-05-01T03:53:38.446Z,99.99
2023-05-01T03:54:38.426Z,99.99
2023-05-01T03:55:38.457Z,99.99
2023-05-01T03:56:38.404Z,99.99
2023-05-01T03:57:38.384Z,99.99
2023-05-01T03:58:38.409Z,99.99
2023-05-01T03:59:39.314Z,99.99
2023-05-01T04:00:38.360Z,99.99
2023-05-01T04:01:38.406Z,99.99
2023-05-01T04:02:38.417Z,99.99
2023-05-01T04:03:38.534Z,99.99
2023-05-01T04:04:38.460Z,99.99
2023-05-01T04:05:38.303Z,99.99
2023-05-01T04:06:38.376Z,99.99
2023-05-01T04:07:38.282Z,99.99
2023-05-01T04:08:38.267Z,99.99
2023-05-01T04:09:38.226Z,99.99
2023-05-01T04:10:38.224Z,99.99
2023-05-01T04:11:38.240Z,99.99
2023-05-01T04:12:38.225Z,99.99
2023-05-01T04:13:38.207Z,99.99
2023-05-01T04:14:38.192Z,99.99
2023-05-01T04:15:38.227Z,99.99
2023-05-01T04:16:38.240Z,99.99
2023-05-01T04:17:38.164Z,99.99
2023-05-01T04:18:38.126Z,99.99
2023-05-01T04:19:38.114Z,99.99
2023-05-01T04:20:38.116Z,99.99
2023-05-01T04:21:38.126Z,99.99
2023-05-01T04:22:38.117Z,99.99
2023-05-01T04:23:38.145Z,99.99
2023-05-01T04:24:38.047Z,99.99
2023-05-01T04:25:38.033Z,99.90
2023-05-01T04:26:38.224Z,99.90
2023-05-01T04:27:38.006Z,99.68
2023-05-01T04:28:38.013Z,99.58
2023-05-01T04:29:37.997Z,99.48
2023-05-01T04:30:37.980Z,99.37
2023-05-01T04:31:38.009Z,99.27
2023-05-01T04:32:37.962Z,99.27
2023-05-01T04:33:38.042Z,99.22
2023-05-01T04:34:40.921Z,99.02
2023-05-01T04:35:37.932Z,99.02
2023-05-01T04:36:37.934Z,98.91
2023-05-01T04:37:37.885Z,98.81
2023-05-01T04:38:37.873Z,98.50
2023-05-01T04:39:37.874Z,98.39
2023-05-01T04:40:37.856Z,98.50
2023-05-01T04:41:37.882Z,98.29
2023-05-01T04:42:38.009Z,98.19
2023-05-01T04:43:37.812Z,98.19
2023-05-01T04:44:37.794Z,97.98
2023-05-01T04:45:37.913Z,97.98
2023-05-01T04:46:37.872Z,97.93
2023-05-01T04:47:37.844Z,98.03
2023-05-01T04:48:37.833Z,97.93
2023-05-01T04:49:37.736Z,97.83
2023-05-01T04:50:37.753Z,97.72
2023-05-01T04:51:37.730Z,97.62
2023-05-01T04:52:37.817Z,97.62
2023-05-01T04:53:37.901Z,97.58
2023-05-01T04:54:37.861Z,97.58
2023-05-01T04:55:37.889Z,97.58
2023-05-01T04:56:37.701Z,97.47
2023-05-01T04:57:37.648Z,97.37
2023-05-01T04:58:37.626Z,97.12
2023-05-01T04:59:37.878Z,97.02
2023-05-01T05:00:37.969Z,96.70
2023-05-01T05:01:38.335Z,96.60
2023-05-01T05:02:37.679Z,96.50
2023-05-01T05:03:37.744Z,96.45
2023-05-01T05:04:37.683Z,95.93
2023-05-01T05:05:37.527Z,95.51
2023-05-01T05:06:37.658Z,95.20
2023-05-01T05:07:37.487Z,95.31
2023-05-01T05:08:37.501Z,95.10
2023-05-01T05:09:37.484Z,95.06
2023-05-01T05:10:37.477Z,95.06
2023-05-01T05:11:37.497Z,94.85
2023-05-01T05:12:37.438Z,94.70
2023-05-01T05:13:37.421Z,95.01
2023-05-01T05:14:37.421Z,95.01
2023-05-01T05:15:37.395Z,94.70
2023-05-01T05:16:37.489Z,94.14
2023-05-01T05:17:37.432Z,93.83
2023-05-01T05:18:37.379Z,93.52
2023-05-01T05:19:37.360Z,92.76
2023-05-01T05:20:37.514Z,93.37
2023-05-01T05:21:37.362Z,93.58
2023-05-01T05:22:37.318Z,93.85
2023-05-01T05:23:37.296Z,93.95
2023-05-01T05:24:37.305Z,93.23
2023-05-01T05:25:37.263Z,92.36
2023-05-01T05:26:37.299Z,92.15
2023-05-01T05:27:37.242Z,92.15
2023-05-01T05:28:37.236Z,92.32
2023-05-01T05:29:37.236Z,91.90
2023-05-01T05:30:37.212Z,91.80
2023-05-01T05:31:37.269Z,90.72
2023-05-01T05:32:37.202Z,90.72
2023-05-01T05:33:37.154Z,90.47
2023-05-01T05:34:37.159Z,90.37
2023-05-01T05:35:37.131Z,88.61
2023-05-01T05:36:37.194Z,88.16
2023-05-01T05:37:37.126Z,88.98
2023-05-01T05:38:37.106Z,87.60
2023-05-01T05:39:37.089Z,87.19
2023-05-01T05:40:37.093Z,87.87
2023-05-01T05:41:37.099Z,85.91
2023-05-01T05:42:37.070Z,84.43
2023-05-01T05:43:37.037Z,85.25
2023-05-01T05:44:37.029Z,84.12
2023-05-01T05:45:37.081Z,84.19
2023-05-01T05:46:37.079Z,85.11
2023-05-01T05:47:37.065Z,82.91
2023-05-01T05:48:36.973Z,81.67
2023-05-01T05:49:36.965Z,80.91
2023-05-01T05:50:36.963Z,81.39
2023-05-01T05:51:36.956Z,80.88
2023-05-01T05:52:36.933Z,79.95
2023-05-01T05:53:36.923Z,80.22
2023-05-01T05:54:36.911Z,80.63
2023-05-01T05:55:36.887Z,79.57
2023-05-01T05:56:36.908Z,78.03
2023-05-01T05:57:36.858Z,78.23
2023-05-01T05:58:36.850Z,77.68
2023-05-01T05:59:36.846Z,75.56
2023-05-01T06:00:36.843Z,76.35
2023-05-01T06:01:36.821Z,75.42
2023-05-01T06:02:36.984Z,75.73
2023-05-01T06:03:36.848Z,75.93
2023-05-01T06:04:36.772Z,75.49
2023-05-01T06:05:36.779Z,75.70
2023-05-01T06:06:36.863Z,75.38
2023-05-01T06:07:36.731Z,76.51
2023-05-01T06:08:36.714Z,74.46
2023-05-01T06:09:36.714Z,74.77
2023-05-01T06:10:36.730Z,74.26
2023-05-01T06:11:36.706Z,75.04
2023-05-01T06:12:39.331Z,74.84
2023-05-01T06:13:37.652Z,74.05
2023-05-01T06:14:36.633Z,74.43
2023-05-01T06:15:36.670Z,73.91
2023-05-01T06:16:36.705Z,73.85
2023-05-01T06:17:36.611Z,74.57
2023-05-01T06:18:36.598Z,72.78
2023-05-01T06:19:36.575Z,73.33
2023-05-01T06:20:36.583Z,73.74
2023-05-01T06:21:36.573Z,73.81
2023-05-01T06:22:36.552Z,73.19
2023-05-01T06:23:36.537Z,72.99
2023-05-01T06:24:36.526Z,72.78
2023-05-01T06:25:36.519Z,73.30
2023-05-01T06:26:36.538Z,71.14
2023-05-01T06:27:36.461Z,70.94
2023-05-01T06:28:36.462Z,72.03
2023-05-01T06:29:36.444Z,71.83
2023-05-01T06:30:36.445Z,71.83
2023-05-01T06:31:36.481Z,71.80
2023-05-01T06:32:36.474Z,70.84
2023-05-01T06:33:36.384Z,70.19
2023-05-01T06:34:36.398Z,69.54
2023-05-01T06:35:36.358Z,69.82
2023-05-01T06:36:36.392Z,68.15
2023-05-01T06:37:36.347Z,68.01
2023-05-01T06:38:36.337Z,68.49
2023-05-01T06:39:36.319Z,66.45
2023-05-01T06:40:36.319Z,65.53
2023-05-01T06:41:36.345Z,66.55
2023-05-01T06:42:36.271Z,66.11
2023-05-01T06:43:36.265Z,65.80
2023-05-01T06:44:36.256Z,66.18
2023-05-01T06:45:36.230Z,65.26
2023-05-01T06:46:36.309Z,65.16
2023-05-01T06:47:36.203Z,65.47
2023-05-01T06:48:36.209Z,66.05
2023-05-01T06:49:36.181Z,65.03
2023-05-01T06:50:36.191Z,66.42
2023-05-01T06:51:36.187Z,65.51
2023-05-01T06:52:36.148Z,65.92
2023-05-01T06:53:36.203Z,65.31
2023-05-01T06:54:36.123Z,65.92
2023-05-01T06:55:36.106Z,65.00
2023-05-01T06:56:36.118Z,63.90
2023-05-01T06:57:36.109Z,65.64
2023-05-01T06:58:36.056Z,65.74
2023-05-01T06:59:36.058Z,64.22
2023-05-01T07:00:36.085Z,66.08
2023-05-01T07:01:36.089Z,66.08
2023-05-01T07:02:36.041Z,65.34
2023-05-01T07:03:36.811Z,64.83
2023-05-01T07:04:36.009Z,65.31
2023-05-01T07:05:35.970Z,65.78
2023-05-01T07:06:36.005Z,63.64
2023-05-01T07:07:36.583Z,62.32
2023-05-01T07:08:35.937Z,61.88
2023-05-01T07:09:35.929Z,62.08
2023-05-01T07:10:35.917Z,60.45
2023-05-01T07:11:35.901Z,61.57
2023-05-01T07:12:35.909Z,62.59
2023-05-01T07:13:35.872Z,63.82
2023-05-01T07:14:35.956Z,62.11
2023-05-01T07:15:36.795Z,62.82
2023-05-01T07:16:35.877Z,62.21
2023-05-01T07:17:35.931Z,63.61
2023-05-01T07:18:35.797Z,62.18
2023-05-01T07:19:35.789Z,61.88
2023-05-01T07:20:35.795Z,62.82
2023-05-01T07:21:35.785Z,63.13
2023-05-01T07:22:35.772Z,62.70
2023-05-01T07:23:35.762Z,62.39
2023-05-01T07:24:35.740Z,64.63
2023-05-01T07:25:35.709Z,62.49
2023-05-01T07:26:35.713Z,64.20
2023-05-01T07:27:35.729Z,62.66
2023-05-01T07:28:35.667Z,62.56
2023-05-01T07:29:35.669Z,62.66
2023-05-01T07:30:35.667Z,61.98
2023-05-01T07:31:35.684Z,62.70
2023-05-01T07:32:35.692Z,63.71
2023-05-01T07:33:35.612Z,63.89
2023-05-01T07:34:35.600Z,65.16
2023-05-01T07:35:35.600Z,61.38
2023-05-01T07:36:35.579Z,60.06
2023-05-01T07:37:35.590Z,62.23
2023-05-01T07:38:35.542Z,63.35
2023-05-01T07:39:35.537Z,61.11
2023-05-01T07:40:35.534Z,63.01
2023-05-01T07:41:35.501Z,61.79
2023-05-01T07:42:35.517Z,61.66
2023-05-01T07:43:35.504Z,61.83
2023-05-01T07:44:35.474Z,62.41
2023-05-01T07:45:35.495Z,60.08
2023-05-01T07:46:35.482Z,60.59
2023-05-01T07:47:35.533Z,61.24
2023-05-01T07:48:36.939Z,60.68
2023-05-01T07:49:35.409Z,58.42
2023-05-01T07:50:35.395Z,58.09
2023-05-01T07:51:35.433Z,60.57
2023-05-01T07:52:35.396Z,58.00
2023-05-01T07:53:35.349Z,58.20
2023-05-01T07:54:35.353Z,54.89
2023-05-01T07:55:35.332Z,55.12
2023-05-01T07:56:35.311Z,56.87
2023-05-01T07:57:35.324Z,56.29
2023-05-01T07:58:35.277Z,56.39
2023-05-01T07:59:35.268Z,57.98
2023-05-01T08:00:35.260Z,59.27
2023-05-01T08:01:35.246Z,57.12
2023-05-01T08:02:35.359Z,55.93
2023-05-01T08:03:35.255Z,56.23
2023-05-01T08:04:35.293Z,54.84
2023-05-01T08:05:35.187Z,56.09
2023-05-01T08:06:35.245Z,57.28
2023-05-01T08:07:35.194Z,57.07
2023-05-01T08:08:35.146Z,56.77
2023-05-01T08:09:35.132Z,56.70
2023-05-01T08:10:35.350Z,57.37
2023-05-01T08:11:35.297Z,56.46
2023-05-01T08:12:35.276Z,55.65
2023-05-01T08:13:35.096Z,57.86
2023-05-01T08:14:35.072Z,55.02
2023-05-01T08:15:35.134Z,54.51
2023-05-01T08:16:35.076Z,54.71
2023-05-01T08:17:35.125Z,54.71
2023-05-01T08:18:35.023Z,55.25
2023-05-01T08:19:35.017Z,57.10
2023-05-01T08:20:35.000Z,57.91
2023-05-01T08:21:35.082Z,56.87
2023-05-01T08:22:34.959Z,57.07
2023-05-01T08:23:34.949Z,55.85
2023-05-01T08:24:34.953Z,56.67
2023-05-01T08:25:34.936Z,55.45
2023-05-01T08:26:34.951Z,58.39
2023-05-01T08:27:34.902Z,57.65
2023-05-01T08:28:34.895Z,57.83
2023-05-01T08:29:34.883Z,56.96
2023-05-01T08:30:34.954Z,54.91
2023-05-01T08:31:34.951Z,54.18
2023-05-01T08:32:34.906Z,53.55
2023-05-01T08:33:34.824Z,54.53
2023-05-01T08:34:34.815Z,52.82
2023-05-01T08:35:34.798Z,52.72
2023-05-01T08:36:34.816Z,51.91
2023-05-01T08:37:34.771Z,52.23
2023-05-01T08:38:34.752Z,52.84
2023-05-01T08:39:34.757Z,52.03
2023-05-01T08:40:34.732Z,51.05
2023-05-01T08:41:34.752Z,54.69
2023-05-01T08:42:34.724Z,53.98
2023-05-01T08:43:34.773Z,52.67
2023-05-01T08:44:34.684Z,54.25
2023-05-01T08:45:34.678Z,53.88
2023-05-01T08:46:34.766Z,53.67
2023-05-01T08:47:34.656Z,54.11
2023-05-01T08:48:34.629Z,54.56
2023-05-01T08:49:34.623Z,55.17
2023-05-01T08:50:34.598Z,56.51
2023-05-01T08:51:34.628Z,57.75
2023-05-01T08:52:34.587Z,56.67
2023-05-01T08:53:34.571Z,57.58
2023-05-01T08:54:34.549Z,58.49
2023-05-01T08:55:34.567Z,58.39
2023-05-01T08:56:34.550Z,59.27
2023-05-01T08:57:34.522Z,56.61
2023-05-01T08:58:34.497Z,56.21
2023-05-01T08:59:34.495Z,55.15
2023-05-01T09:00:34.467Z,54.51
2023-05-01T09:01:34.547Z,55.87
2023-05-01T09:02:34.490Z,54.91
2023-05-01T09:03:34.508Z,54.08
2023-05-01T09:04:34.435Z,55.66
2023-05-01T09:05:34.418Z,52.51
2023-05-01T09:06:34.556Z,51.20
2023-05-01T09:07:34.394Z,50.88
2023-05-01T09:08:34.354Z,51.91
2023-05-01T09:09:34.349Z,53.72
2023-05-01T09:10:34.581Z,51.71
2023-05-01T09:11:34.353Z,52.34
2023-05-01T09:12:34.311Z,52.14
2023-05-01T09:13:34.302Z,50.87
2023-05-01T09:14:34.283Z,53.32
2023-05-01T09:15:34.270Z,53.32
2023-05-01T09:16:34.343Z,52.84
2023-05-01T09:17:34.352Z,53.05
2023-05-01T09:18:34.398Z,52.74
2023-05-01T09:19:34.225Z,52.64
2023-05-01T09:20:34.345Z,54.00
2023-05-01T09:21:34.310Z,52.44
2023-05-01T09:22:34.180Z,50.90
2023-05-01T09:23:34.346Z,52.09
2023-05-01T09:24:34.248Z,51.03
2023-05-01T09:25:34.432Z,50.23
2023-05-01T09:26:34.147Z,50.71
2023-05-01T09:27:34.156Z,51.61
2023-05-01T09:28:34.327Z,49.57
2023-05-01T09:29:34.094Z,51.79
2023-05-01T09:30:34.083Z,48.77
2023-05-01T09:31:34.320Z,48.69
2023-05-01T09:32:34.362Z,49.50
2023-05-01T09:33:34.150Z,50.00
2023-05-01T09:34:34.025Z,52.09
2023-05-01T09:35:34.036Z,49.07
2023-05-01T09:36:34.030Z,48.99
2023-05-01T09:37:34.047Z,50.43
2023-05-01T09:38:33.974Z,49.42
2023-05-01T09:39:33.962Z,52.14
2023-05-01T09:40:33.974Z,50.10
2023-05-01T09:41:34.031Z,51.29
2023-05-01T09:42:33.923Z,54.65
2023-05-01T09:43:33.934Z,50.51
2023-05-01T09:44:33.917Z,49.30
2023-05-01T09:45:34.008Z,49.73
2023-05-01T09:46:34.097Z,47.92
2023-05-01T09:47:33.983Z,51.34
2023-05-01T09:48:35.673Z,48.44
2023-05-01T09:49:33.855Z,51.04
2023-05-01T09:50:33.957Z,48.60
2023-05-01T09:51:33.818Z,48.00
2023-05-01T09:52:33.969Z,50.89
2023-05-01T09:53:33.959Z,49.56
2023-05-01T09:54:33.772Z,47.55
2023-05-01T09:55:33.776Z,50.21
2023-05-01T09:56:33.900Z,48.58
2023-05-01T09:57:33.841Z,48.38
2023-05-01T09:58:33.718Z,48.10
2023-05-01T09:59:33.783Z,48.43
2023-05-01T10:00:33.707Z,52.84
2023-05-01T10:01:33.755Z,50.91
2023-05-01T10:02:33.810Z,48.93
2023-05-01T10:03:33.698Z,50.11
2023-05-01T10:04:33.670Z,50.41
2023-05-01T10:05:33.640Z,49.33
2023-05-01T10:06:33.648Z,54.02
2023-05-01T10:07:33.645Z,50.26
2023-05-01T10:08:33.684Z,51.44
2023-05-01T10:09:33.592Z,50.34
2023-05-01T10:10:33.580Z,48.33
2023-05-01T10:11:33.649Z,47.71
2023-05-01T10:12:33.573Z,47.71
2023-05-01T10:13:33.542Z,48.83
2023-05-01T10:14:33.523Z,47.83
2023-05-01T10:15:33.525Z,48.43
2023-05-01T10:16:33.512Z,50.94
2023-05-01T10:17:33.730Z,50.62
2023-05-01T10:18:33.485Z,47.88
2023-05-01T10:19:33.726Z,48.16
2023-05-01T10:20:33.450Z,50.62
2023-05-01T10:21:33.586Z,46.99
2023-05-01T10:22:33.442Z,45.29
2023-05-01T10:23:33.649Z,45.47
2023-05-01T10:24:33.407Z,47.05
2023-05-01T10:25:33.395Z,48.45
2023-05-01T10:26:33.402Z,46.55
2023-05-01T10:27:33.384Z,47.17
2023-05-01T10:28:33.348Z,46.33
2023-05-01T10:29:33.333Z,44.73
2023-05-01T10:30:33.420Z,42.85
2023-05-01T10:31:33.563Z,45.17
2023-05-01T10:32:33.324Z,46.65
2023-05-01T10:33:33.309Z,46.15
2023-05-01T10:34:33.406Z,46.35
2023-05-01T10:35:33.469Z,46.83
2023-05-01T10:36:33.353Z,51.50
2023-05-01T10:37:33.550Z,49.08
2023-05-01T10:38:33.215Z,46.36
2023-05-01T10:39:33.330Z,46.84
2023-05-01T10:40:33.336Z,43.55
2023-05-01T10:41:33.173Z,45.74
2023-05-01T10:42:33.182Z,46.12
2023-05-01T10:43:33.421Z,43.93
2023-05-01T10:44:33.203Z,42.63
2023-05-01T10:45:33.950Z,43.47
2023-05-01T10:46:33.416Z,47.66
2023-05-01T10:47:33.419Z,43.19
2023-05-01T10:48:33.228Z,44.69
2023-05-01T10:49:33.072Z,43.33
2023-05-01T10:50:33.052Z,45.43
2023-05-01T10:51:33.046Z,47.22
2023-05-01T10:52:33.044Z,44.41
2023-05-01T10:53:33.042Z,44.71
2023-05-01T10:54:33.944Z,43.39
2023-05-01T10:55:32.989Z,44.99
2023-05-01T10:56:32.983Z,43.87
2023-05-01T10:57:33.027Z,42.25
2023-05-01T10:58:33.783Z,43.37
2023-05-01T10:59:32.940Z,43.57
2023-05-01T11:00:32.930Z,45.72
2023-05-01T11:01:33.054Z,44.40
2023-05-01T11:02:32.951Z,45.79
2023-05-01T11:03:32.890Z,42.23
2023-05-01T11:04:32.903Z,42.77
2023-05-01T11:05:38.472Z,46.78
2023-05-01T11:06:34.180Z,42.61
2023-05-01T11:07:32.895Z,43.53
2023-05-01T11:08:32.913Z,44.75
2023-05-01T11:09:33.087Z,46.89
2023-05-01T11:10:33.014Z,46.00
2023-05-01T11:11:32.879Z,45.95
2023-05-01T11:12:32.805Z,49.00
2023-05-01T11:13:32.998Z,47.45
2023-05-01T11:14:32.745Z,46.22
2023-05-01T11:15:37.121Z,46.00
2023-05-01T11:16:32.892Z,41.99
2023-05-01T11:17:32.831Z,45.15
2023-05-01T11:18:32.681Z,41.58
2023-05-01T11:19:32.661Z,41.95
2023-05-01T11:20:32.663Z,41.77
2023-05-01T11:21:32.655Z,42.57
2023-05-01T11:22:32.654Z,44.74
2023-05-01T11:23:32.622Z,43.10
2023-05-01T11:24:33.555Z,39.03
2023-05-01T11:25:32.603Z,41.67
2023-05-01T11:26:32.758Z,39.00
2023-05-01T11:27:32.692Z,38.02
2023-05-01T11:28:32.566Z,41.93
2023-05-01T11:29:32.540Z,45.14
2023-05-01T11:30:32.529Z,40.98
2023-05-01T11:31:32.577Z,41.22
2023-05-01T11:32:32.579Z,41.14
2023-05-01T11:33:32.511Z,41.88
2023-05-01T11:34:32.481Z,42.13
2023-05-01T11:35:32.463Z,39.86
2023-05-01T11:36:32.476Z,43.57
2023-05-01T11:37:32.476Z,47.27
2023-05-01T11:38:32.461Z,43.79
2023-05-01T11:39:32.408Z,42.69
2023-05-01T11:40:32.407Z,44.92
2023-05-01T11:41:32.398Z,46.51
2023-05-01T11:42:32.485Z,43.01
2023-05-01T11:43:32.367Z,45.51
2023-05-01T11:44:32.336Z,46.44
2023-05-01T11:45:32.403Z,48.24
2023-05-01T11:46:32.353Z,47.74
2023-05-01T11:47:32.409Z,46.92
2023-05-01T11:48:32.312Z,43.71
2023-05-01T11:49:32.279Z,43.41
2023-05-01T11:50:32.468Z,47.39
2023-05-01T11:51:32.256Z,43.07
2023-05-01T11:52:32.272Z,46.27
2023-05-01T11:53:32.270Z,42.87
2023-05-01T11:54:32.220Z,41.47
2023-05-01T11:55:32.188Z,41.97
2023-05-01T11:56:32.224Z,41.47
2023-05-01T11:57:32.200Z,43.98
2023-05-01T11:58:32.191Z,44.47
2023-05-01T11:59:32.195Z,45.07
2023-05-01T12:00:32.136Z,47.97
2023-05-01T12:01:32.119Z,47.15
2023-05-01T12:02:32.301Z,41.83
2023-05-01T12:03:32.297Z,44.03
2023-05-01T12:04:32.637Z,46.20
2023-05-01T12:05:32.103Z,41.41
2023-05-01T12:06:32.106Z,41.71
2023-05-01T12:07:32.085Z,43.21
2023-05-01T12:08:32.037Z,44.91
2023-05-01T12:09:32.017Z,43.61
2023-05-01T12:10:34.055Z,43.11
2023-05-01T12:11:31.982Z,46.80
2023-05-01T12:12:32.017Z,42.51
2023-05-01T12:13:31.962Z,41.71
2023-05-01T12:14:31.962Z,43.93
2023-05-01T12:15:31.932Z,46.13
2023-05-01T12:16:32.810Z,42.73
2023-05-01T12:17:31.982Z,41.08
2023-05-01T12:18:31.911Z,44.17
2023-05-01T12:19:31.887Z,46.00
2023-05-01T12:20:31.897Z,42.99
2023-05-01T12:21:31.869Z,44.32
2023-05-01T12:22:31.871Z,46.42
2023-05-01T12:23:31.831Z,52.29
2023-05-01T12:24:31.831Z,43.41
2023-05-01T12:25:31.801Z,43.59
2023-05-01T12:26:31.790Z,43.37
2023-05-01T12:27:31.779Z,42.97
2023-05-01T12:28:31.790Z,45.27
2023-05-01T12:29:31.744Z,44.37
2023-05-01T12:30:31.753Z,47.45
2023-05-01T12:31:31.764Z,48.14
2023-05-01T12:32:31.761Z,46.01
2023-05-01T12:33:31.749Z,42.61
2023-05-01T12:34:31.700Z,42.89
2023-05-01T12:35:31.674Z,43.59
2023-05-01T12:36:31.688Z,47.26
2023-05-01T12:37:31.639Z,44.94
2023-05-01T12:38:31.661Z,41.63
2023-05-01T12:39:31.621Z,40.95
2023-05-01T12:40:31.607Z,42.23
2023-05-01T12:41:31.640Z,42.41
2023-05-01T12:42:31.597Z,39.54
2023-05-01T12:43:31.604Z,40.86
2023-05-01T12:44:31.556Z,42.35
2023-05-01T12:45:31.537Z,43.49
2023-05-01T12:46:31.589Z,42.29
2023-05-01T12:47:31.830Z,41.89
2023-05-01T12:48:31.560Z,45.89
2023-05-01T12:49:31.504Z,43.89
2023-05-01T12:50:32.132Z,45.68
2023-05-01T12:51:31.461Z,46.31
2023-05-01T12:52:34.846Z,44.11
2023-05-01T12:53:31.460Z,42.91